Time;durP1;ratioP1;P1;durP2;ratioP2;P2;SDS_P1;SDS_P2;PMS_P1;PMS_P2;Temp;Humidity;BMP_temperature;BMP_pressure;BME280_temperature;BME280_humidity;BME280_pressure;Samples;Min_cycle;Max_cycle;Signal;HPM_P1;HPM_P2
2022/01/31 00:00:09;;;;;;;4.33;2.40;;;16.50;68.80;;;;;;5057637;28;20164;-22
2022/01/31 00:02:35;;;;;;;3.83;2.30;;;16.50;68.70;;;;;;5057662;28;20167;-20
2022/01/31 00:05:04;;;;;;;4.43;2.30;;;16.50;68.90;;;;;;5057872;28;20177;-21
2022/01/31 00:07:30;;;;;;;4.37;2.20;;;16.50;68.90;;;;;;5058114;28;20195;-21
2022/01/31 00:09:56;;;;;;;4.90;2.10;;;16.50;68.80;;;;;;5057214;28;20200;-20
2022/01/31 00:12:25;;;;;;;3.27;1.97;;;16.40;68.40;;;;;;5057258;28;20169;-18
2022/01/31 00:14:53;;;;;;;2.70;1.90;;;16.40;68.80;;;;;;5056672;28;20448;-20
2022/01/31 00:17:19;;;;;;;5.13;2.27;;;16.40;68.50;;;;;;5056885;28;20173;-20
2022/01/31 00:19:45;;;;;;;3.63;2.07;;;16.40;68.50;;;;;;5057970;28;20187;-18
2022/01/31 00:22:13;;;;;;;4.97;1.73;;;16.30;68.50;;;;;;5056878;28;20180;-18
2022/01/31 00:24:42;;;;;;;4.47;2.10;;;16.30;68.70;;;;;;5057538;28;20263;-24
2022/01/31 00:27:08;;;;;;;4.40;2.20;;;16.30;68.60;;;;;;5056878;28;20174;-19
2022/01/31 00:29:34;;;;;;;3.47;2.17;;;16.30;68.60;;;;;;5057369;28;20214;-23
2022/01/31 00:32:00;;;;;;;4.73;2.37;;;16.30;68.50;;;;;;5056713;28;20165;-18
2022/01/31 00:34:32;;;;;;;2.67;1.60;;;16.30;68.50;;;;;;5057107;28;20168;-20
2022/01/31 00:36:58;;;;;;;3.70;1.90;;;16.30;68.40;;;;;;5056618;28;20593;-22
2022/01/31 00:39:24;;;;;;;3.67;1.80;;;16.30;68.10;;;;;;5057032;28;20184;-22
2022/01/31 00:41:49;;;;;;;3.87;2.00;;;16.30;67.90;;;;;;5056974;28;20187;-21
2022/01/31 00:44:29;;;;;;;3.77;2.10;;;16.30;67.70;;;;;;5057337;28;20178;-20
2022/01/31 00:46:59;;;;;;;5.87;1.90;;;16.30;67.50;;;;;;5056789;28;20685;-21
2022/01/31 00:51:59;;;;;;;3.60;1.90;;;16.30;66.80;;;;;;5057916;28;20269;-21
2022/01/31 00:54:25;;;;;;;2.73;1.67;;;16.30;66.60;;;;;;5057471;28;20445;-19
2022/01/31 00:56:51;;;;;;;3.73;1.80;;;16.30;66.30;;;;;;5057543;28;20269;-22
2022/01/31 00:59:18;;;;;;;3.40;1.80;;;16.40;66.00;;;;;;5057280;28;20163;-22
2022/01/31 01:01:46;;;;;;;4.57;1.93;;;16.40;65.50;;;;;;5056589;28;20169;-21
2022/01/31 01:04:12;;;;;;;3.63;1.90;;;16.40;65.20;;;;;;5057202;28;20180;-18
2022/01/31 01:06:38;;;;;;;2.87;1.90;;;16.50;64.70;;;;;;5056493;28;20505;-19
2022/01/31 01:09:04;;;;;;;3.57;1.70;;;16.50;64.30;;;;;;5056021;28;20229;-22
2022/01/31 01:11:30;;;;;;;4.17;1.80;;;16.50;63.80;;;;;;5056879;28;20193;-20
2022/01/31 01:13:56;;;;;;;4.03;2.07;;;16.50;63.50;;;;;;5054880;28;20231;-20
2022/01/31 01:16:22;;;;;;;3.00;1.67;;;16.50;62.90;;;;;;5056524;28;20176;-21
2022/01/31 01:18:48;;;;;;;2.87;1.67;;;16.50;62.80;;;;;;5056156;28;20179;-22
2022/01/31 01:21:15;;;;;;;3.20;1.67;;;16.50;62.50;;;;;;5055259;28;20175;-23
2022/01/31 01:23:41;;;;;;;5.27;1.70;;;16.50;62.10;;;;;;5056321;28;20177;-19
2022/01/31 01:26:06;;;;;;;2.87;1.67;;;16.60;62.00;;;;;;5055103;28;20474;-21
2022/01/31 01:28:34;;;;;;;2.47;1.83;;;16.60;61.70;;;;;;5056176;28;20211;-20
2022/01/31 01:31:00;;;;;;;4.43;1.80;;;16.50;61.30;;;;;;5056853;28;20712;-19
2022/01/31 01:33:27;;;;;;;3.60;1.50;;;16.60;60.70;;;;;;5055639;28;20778;-22
2022/01/31 01:35:54;;;;;;;4.20;2.03;;;16.60;60.80;;;;;;5055791;28;20448;-21
2022/01/31 01:38:27;;;;;;;3.17;1.73;;;16.60;60.60;;;;;;5057149;28;20327;-21
2022/01/31 01:40:59;;;;;;;4.47;1.80;;;16.60;60.40;;;;;;5058858;28;20176;-20
2022/01/31 01:43:26;;;;;;;3.67;1.90;;;16.50;60.00;;;;;;5060162;28;20168;-22
2022/01/31 01:45:54;;;;;;;3.20;1.70;;;16.50;60.00;;;;;;5060754;28;20178;-21
2022/01/31 01:48:20;;;;;;;3.30;1.77;;;16.50;59.80;;;;;;5060724;28;20223;-21
2022/01/31 01:50:47;;;;;;;2.63;1.57;;;16.50;59.60;;;;;;5060982;28;20188;-20
2022/01/31 01:53:13;;;;;;;3.43;1.70;;;16.50;59.60;;;;;;5059326;28;20579;-19
2022/01/31 01:55:42;;;;;;;3.90;1.67;;;16.50;59.60;;;;;;5058924;28;20530;-22
2022/01/31 01:58:14;;;;;;;4.10;1.57;;;16.50;59.40;;;;;;5060475;28;20179;-18
2022/01/31 02:00:50;;;;;;;2.80;1.60;;;16.50;59.30;;;;;;5060482;28;20166;-21
2022/01/31 02:03:33;;;;;;;3.20;1.90;;;16.40;59.20;;;;;;5060646;28;20245;-20
2022/01/31 02:05:59;;;;;;;3.07;1.50;;;16.50;58.90;;;;;;5059828;28;20182;-22
2022/01/31 02:08:27;;;;;;;3.37;1.70;;;16.40;59.00;;;;;;5060212;28;20224;-19
2022/01/31 02:10:53;;;;;;;2.53;1.40;;;16.40;58.80;;;;;;5059742;28;20230;-20
2022/01/31 02:13:20;;;;;;;4.97;2.10;;;16.30;58.80;;;;;;5060180;28;20164;-21
2022/01/31 02:15:49;;;;;;;3.73;1.67;;;16.40;58.90;;;;;;5058965;28;20172;-21
2022/01/31 02:18:17;;;;;;;4.33;1.80;;;16.40;58.80;;;;;;5058897;28;20175;-18
2022/01/31 02:20:44;;;;;;;4.10;1.70;;;16.40;58.80;;;;;;5059161;28;20234;-20
2022/01/31 02:23:12;;;;;;;3.60;1.60;;;16.40;58.60;;;;;;5059597;28;20544;-18
2022/01/31 02:26:01;;;;;;;3.43;1.97;;;16.40;58.50;;;;;;5060438;28;20259;-22
2022/01/31 02:28:30;;;;;;;3.03;1.73;;;16.40;58.40;;;;;;5059511;28;20484;-19
2022/01/31 02:30:57;;;;;;;2.33;1.37;;;16.40;58.40;;;;;;5059777;28;20199;-23
2022/01/31 02:33:23;;;;;;;2.60;1.17;;;16.40;58.30;;;;;;5060162;28;20166;-22
2022/01/31 02:35:54;;;;;;;3.73;1.80;;;16.40;58.20;;;;;;5059970;28;20165;-23
2022/01/31 02:38:22;;;;;;;3.50;2.00;;;16.40;58.10;;;;;;5060191;28;20173;-18
2022/01/31 02:40:50;;;;;;;3.33;1.63;;;16.40;58.00;;;;;;5059305;28;20706;-18
2022/01/31 02:43:27;;;;;;;1.70;1.30;;;16.40;58.00;;;;;;5059132;28;20187;-23
2022/01/31 02:45:53;;;;;;;3.73;1.77;;;16.40;57.80;;;;;;5059707;28;20175;-21
2022/01/31 02:48:22;;;;;;;3.30;1.53;;;16.40;57.80;;;;;;5058524;28;20206;-18
2022/01/31 02:50:48;;;;;;;2.77;1.50;;;16.40;57.70;;;;;;5058778;28;20268;-21
2022/01/31 02:53:24;;;;;;;2.23;1.57;;;16.50;57.70;;;;;;5059465;28;20263;-20
2022/01/31 02:55:53;;;;;;;2.63;1.27;;;16.50;57.50;;;;;;5059399;28;20391;-22
2022/01/31 02:58:19;;;;;;;3.20;1.50;;;16.40;57.50;;;;;;5059178;28;20176;-20
2022/01/31 03:00:45;;;;;;;3.13;1.50;;;16.40;57.40;;;;;;5058914;28;20212;-21
2022/01/31 03:03:17;;;;;;;2.70;1.40;;;16.50;57.30;;;;;;5058744;28;20196;-20
2022/01/31 03:05:43;;;;;;;4.60;1.90;;;16.50;57.30;;;;;;5059355;28;20170;-24
2022/01/31 03:08:09;;;;;;;2.47;1.40;;;16.50;57.20;;;;;;5058807;28;20204;-20
2022/01/31 03:10:35;;;;;;;3.33;1.47;;;16.50;57.20;;;;;;5059184;28;20199;-19
2022/01/31 03:13:04;;;;;;;3.73;1.60;;;16.50;57.10;;;;;;5059342;28;20462;-23
2022/01/31 03:15:29;;;;;;;3.57;1.60;;;16.50;57.10;;;;;;5058778;28;20176;-23
2022/01/31 03:17:55;;;;;;;3.37;1.67;;;16.50;57.00;;;;;;5058602;28;20173;-21
2022/01/31 03:20:24;;;;;;;2.83;1.60;;;16.50;56.90;;;;;;5059655;28;20206;-18
2022/01/31 03:22:51;;;;;;;2.70;1.50;;;16.50;56.80;;;;;;5059463;28;20152;-21
2022/01/31 03:25:17;;;;;;;3.37;1.50;;;16.50;56.80;;;;;;5058788;28;20175;-21
2022/01/31 03:27:44;;;;;;;2.13;1.43;;;16.50;56.80;;;;;;5059101;28;20157;-19
2022/01/31 03:30:19;;;;;;;2.50;1.40;;;16.50;56.70;;;;;;5058895;28;20304;-21
2022/01/31 03:32:46;;;;;;;2.17;1.40;;;16.50;56.70;;;;;;5059264;28;20168;-21
2022/01/31 03:35:12;;;;;;;2.57;1.37;;;16.50;56.70;;;;;;5058324;28;20190;-18
2022/01/31 03:37:38;;;;;;;1.67;1.40;;;16.50;56.80;;;;;;5058212;28;20493;-20
2022/01/31 03:40:07;;;;;;;2.97;1.57;;;16.40;56.90;;;;;;5058745;28;20161;-24
2022/01/31 03:42:33;;;;;;;2.30;1.37;;;16.30;57.10;;;;;;5058538;28;20212;-20
2022/01/31 03:44:59;;;;;;;2.63;1.40;;;16.30;57.20;;;;;;5058655;28;20460;-21
2022/01/31 03:47:24;;;;;;;3.10;1.50;;;16.20;57.40;;;;;;5057792;28;20563;-18
2022/01/31 03:49:52;;;;;;;2.37;1.50;;;16.10;57.60;;;;;;5058742;28;20731;-21
2022/01/31 03:52:17;;;;;;;3.67;1.50;;;16.10;57.80;;;;;;5058496;28;20165;-21
2022/01/31 03:54:44;;;;;;;1.77;1.33;;;16.00;58.00;;;;;;5058129;28;20510;-19
2022/01/31 03:57:10;;;;;;;2.27;1.40;;;15.90;58.20;;;;;;5057895;28;20170;-20
2022/01/31 03:59:36;;;;;;;2.33;1.40;;;15.90;58.40;;;;;;5057726;28;20245;-22
2022/01/31 04:02:04;;;;;;;2.80;1.37;;;15.80;58.60;;;;;;5057945;28;20176;-21
2022/01/31 04:04:30;;;;;;;2.47;1.30;;;15.80;58.70;;;;;;5056529;28;20614;-19
2022/01/31 04:06:56;;;;;;;2.37;1.30;;;15.70;59.30;;;;;;5057107;28;20183;-19
2022/01/31 04:09:23;;;;;;;3.90;1.37;;;15.70;59.00;;;;;;5057650;28;20201;-21
2022/01/31 04:11:49;;;;;;;2.90;1.33;;;16.20;58.10;;;;;;5061431;28;20186;-18
2022/01/31 04:14:15;;;;;;;4.27;1.63;;;17.80;54.50;;;;;;5052492;28;20184;-20
2022/01/31 04:16:40;;;;;;;2.07;1.40;;;19.90;50.40;;;;;;5050436;28;20174;-19
2022/01/31 04:19:11;;;;;;;1.97;1.40;;;20.20;48.70;;;;;;5057733;28;20175;-23
2022/01/31 04:21:36;;;;;;;1.10;0.97;;;20.30;48.10;;;;;;5056995;28;20489;-19
2022/01/31 04:24:03;;;;;;;2.07;1.30;;;20.60;47.60;;;;;;5056815;28;20183;-22
2022/01/31 04:26:33;;;;;;;1.80;1.20;;;20.90;47.20;;;;;;5057256;28;20168;-21
2022/01/31 04:29:14;;;;;;;2.17;1.20;;;21.30;46.70;;;;;;5057225;28;20200;-21
2022/01/31 04:31:44;;;;;;;2.03;1.27;;;21.50;46.20;;;;;;5056268;28;20192;-21
2022/01/31 04:34:10;;;;;;;2.17;1.10;;;21.80;45.60;;;;;;5056644;28;20687;-22
2022/01/31 04:36:37;;;;;;;1.60;1.10;;;21.90;45.30;;;;;;5056277;28;20174;-19
2022/01/31 04:39:03;;;;;;;1.80;1.30;;;21.80;45.30;;;;;;5056892;28;20213;-22
2022/01/31 04:41:29;;;;;;;1.77;1.20;;;21.60;45.30;;;;;;5057467;28;20257;-21
2022/01/31 04:44:00;;;;;;;2.17;1.23;;;21.40;45.60;;;;;;5057446;28;20178;-19
2022/01/31 04:46:27;;;;;;;1.80;1.20;;;20.80;46.00;;;;;;5056323;28;20178;-21
2022/01/31 04:48:53;;;;;;;2.47;1.07;;;20.50;46.50;;;;;;5052561;28;20218;-21
2022/01/31 04:51:19;;;;;;;1.73;1.20;;;20.20;47.00;;;;;;5056865;28;20179;-18
2022/01/31 04:53:44;;;;;;;2.33;1.13;;;19.90;47.30;;;;;;5056967;28;20169;-23
2022/01/31 04:56:12;;;;;;;1.53;1.07;;;19.70;47.70;;;;;;5057519;28;20190;-21
2022/01/31 04:58:40;;;;;;;1.90;1.17;;;19.30;48.10;;;;;;5056890;28;20185;-19
2022/01/31 05:01:06;;;;;;;1.40;1.20;;;19.10;48.50;;;;;;5056804;28;20179;-19
2022/01/31 05:03:31;;;;;;;1.60;1.20;;;18.90;48.90;;;;;;5055956;28;20176;-20
2022/01/31 05:06:00;;;;;;;1.20;1.10;;;18.70;49.70;;;;;;5056221;28;20192;-22
2022/01/31 05:08:28;;;;;;;1.70;1.10;;;18.50;49.70;;;;;;5056394;28;20214;-21
2022/01/31 05:10:54;;;;;;;2.00;1.20;;;18.30;50.00;;;;;;5055198;28;20190;-19
2022/01/31 05:13:20;;;;;;;1.60;1.20;;;18.10;50.40;;;;;;5055623;28;20459;-22
2022/01/31 05:15:50;;;;;;;1.70;1.23;;;17.90;50.70;;;;;;5055213;28;20594;-21
2022/01/31 05:18:15;;;;;;;2.77;1.20;;;17.80;51.10;;;;;;5056926;28;20179;-25
2022/01/31 05:20:42;;;;;;;1.57;1.00;;;17.60;51.60;;;;;;5055743;28;20186;-19
2022/01/31 05:23:09;;;;;;;1.73;1.10;;;17.40;52.00;;;;;;5056001;28;20181;-21
2022/01/31 05:25:36;;;;;;;2.17;1.30;;;17.30;52.40;;;;;;5055492;28;20183;-20
2022/01/31 05:28:03;;;;;;;1.63;1.10;;;17.20;52.80;;;;;;5055493;28;20561;-21
2022/01/31 05:30:29;;;;;;;1.90;1.00;;;17.00;53.10;;;;;;5055590;28;20639;-20
2022/01/31 05:32:54;;;;;;;1.60;1.10;;;17.00;53.50;;;;;;5056472;28;20167;-22
2022/01/31 05:35:21;;;;;;;1.47;1.10;;;16.80;53.70;;;;;;5055738;28;20177;-20
2022/01/31 05:37:46;;;;;;;1.87;1.10;;;16.80;54.10;;;;;;5056755;28;20186;-21
2022/01/31 05:40:13;;;;;;;2.20;1.03;;;16.70;54.30;;;;;;5056508;28;20167;-21
2022/01/31 05:42:38;;;;;;;2.00;1.20;;;16.60;54.60;;;;;;5055164;28;20178;-21
2022/01/31 05:45:08;;;;;;;1.73;1.10;;;16.50;54.80;;;;;;5056369;28;20216;-19
2022/01/31 05:47:35;;;;;;;2.00;1.20;;;16.50;55.10;;;;;;5055223;28;20207;-20
2022/01/31 05:50:03;;;;;;;2.00;1.10;;;16.70;55.00;;;;;;5055439;28;20295;-18
2022/01/31 05:52:29;;;;;;;1.87;1.20;;;17.10;54.20;;;;;;5055711;28;20529;-19
2022/01/31 05:54:55;;;;;;;2.13;1.10;;;17.40;53.60;;;;;;5054425;28;20278;-18
2022/01/31 05:57:21;;;;;;;1.77;1.10;;;17.70;52.90;;;;;;5056149;28;20210;-19
2022/01/31 05:59:46;;;;;;;1.30;1.00;;;18.10;52.20;;;;;;5055521;28;20220;-20
2022/01/31 06:02:12;;;;;;;1.80;1.10;;;18.60;51.40;;;;;;5056375;28;20184;-24
2022/01/31 06:04:40;;;;;;;1.47;0.97;;;19.20;50.40;;;;;;5054296;28;20672;-23
2022/01/31 06:07:06;;;;;;;1.87;1.10;;;19.70;49.40;;;;;;5054737;28;20178;-19
2022/01/31 06:09:32;;;;;;;2.50;1.20;;;20.30;48.50;;;;;;5054848;28;20312;-23
2022/01/31 06:12:01;;;;;;;2.30;1.23;;;20.70;47.70;;;;;;5053046;28;20766;-21
2022/01/31 06:14:28;;;;;;;1.67;1.20;;;20.70;47.30;;;;;;5054637;28;20179;-20
2022/01/31 06:16:53;;;;;;;2.90;1.10;;;20.80;47.20;;;;;;5055026;28;20181;-24
2022/01/31 06:19:19;;;;;;;2.37;1.10;;;20.70;47.20;;;;;;5055255;28;20168;-22
2022/01/31 06:21:45;;;;;;;1.63;1.10;;;20.40;47.40;;;;;;5054095;28;20204;-19
2022/01/31 06:24:13;;;;;;;1.40;1.00;;;20.20;47.70;;;;;;5055683;28;20346;-19
2022/01/31 06:26:40;;;;;;;1.90;1.33;;;19.90;48.00;;;;;;5055505;28;20171;-22
2022/01/31 06:29:06;;;;;;;1.50;1.00;;;19.60;48.40;;;;;;5057221;28;20305;-18
2022/01/31 06:31:33;;;;;;;2.17;0.93;;;19.30;48.80;;;;;;5058734;28;20262;-19
2022/01/31 06:34:05;;;;;;;3.73;1.50;;;19.00;49.30;;;;;;5058521;28;20187;-21
2022/01/31 06:36:31;;;;;;;1.60;1.07;;;18.70;49.80;;;;;;5057976;28;20578;-22
2022/01/31 06:38:57;;;;;;;2.00;1.37;;;18.50;50.50;;;;;;5052114;28;20760;-19
2022/01/31 06:41:24;;;;;;;1.90;1.20;;;18.10;51.20;;;;;;5037790;28;20250;-19
2022/01/31 06:43:52;;;;;;;1.43;1.27;;;17.90;52.00;;;;;;5037931;28;20183;-20
2022/01/31 06:46:19;;;;;;;2.70;1.30;;;17.70;52.60;;;;;;5037253;28;20186;-23
2022/01/31 06:48:45;;;;;;;1.80;1.20;;;17.40;53.10;;;;;;5037676;28;20207;-20
2022/01/31 06:51:10;;;;;;;1.57;1.10;;;17.30;53.70;;;;;;5042489;28;20190;-22
2022/01/31 06:53:37;;;;;;;2.13;1.10;;;17.10;54.30;;;;;;5057705;28;20474;-22
2022/01/31 06:56:03;;;;;;;5.20;1.20;;;17.00;54.80;;;;;;5057279;28;20579;-20
2022/01/31 06:58:28;;;;;;;2.23;1.17;;;16.80;55.20;;;;;;5057511;28;20184;-22
2022/01/31 07:00:55;;;;;;;2.77;1.10;;;16.70;55.60;;;;;;5057510;28;20186;-21
2022/01/31 07:03:22;;;;;;;2.77;1.30;;;16.60;56.00;;;;;;5058564;28;20186;-22
2022/01/31 07:05:48;;;;;;;4.10;1.30;;;16.50;56.40;;;;;;5058703;28;20274;-19
2022/01/31 07:08:15;;;;;;;2.73;1.40;;;16.50;56.70;;;;;;5057597;28;20331;-19
2022/01/31 07:10:42;;;;;;;4.90;1.30;;;16.40;57.00;;;;;;5056884;28;20664;-21
2022/01/31 07:13:24;;;;;;;3.30;1.70;;;16.30;57.80;;;;;;5057464;28;20153;-22
2022/01/31 07:15:50;;;;;;;2.97;1.50;;;16.60;57.20;;;;;;5057903;28;20167;-19
2022/01/31 07:18:16;;;;;;;2.10;1.20;;;17.00;56.10;;;;;;5057608;28;20434;-22
2022/01/31 07:20:44;;;;;;;2.10;1.30;;;17.40;55.30;;;;;;5057606;28;20318;-22
2022/01/31 07:23:23;;;;;;;2.80;1.40;;;17.80;54.60;;;;;;5057336;28;20259;-20
2022/01/31 07:25:48;;;;;;;2.90;1.50;;;18.20;53.40;;;;;;5057582;28;20148;-23
2022/01/31 07:28:16;;;;;;;4.20;1.27;;;18.60;52.70;;;;;;5056719;28;20593;-19
2022/01/31 07:30:50;;;;;;;2.97;1.40;;;18.90;52.00;;;;;;5057500;28;20261;-22
2022/01/31 07:33:16;;;;;;;3.80;1.43;;;19.50;50.90;;;;;;5056330;28;20177;-19
2022/01/31 07:35:45;;;;;;;4.03;1.50;;;19.90;50.00;;;;;;5056494;28;20449;-23
2022/01/31 07:38:11;;;;;;;3.10;1.40;;;19.90;49.60;;;;;;5055692;28;20178;-21
2022/01/31 07:40:37;;;;;;;3.23;1.33;;;19.80;49.50;;;;;;5055293;28;20188;-21
2022/01/31 07:43:03;;;;;;;3.97;1.60;;;19.40;49.80;;;;;;5056002;28;20175;-20
2022/01/31 07:45:29;;;;;;;4.17;1.50;;;19.30;50.10;;;;;;5056374;28;20179;-20
2022/01/31 07:47:55;;;;;;;3.27;1.43;;;19.10;50.40;;;;;;5055577;28;20230;-21
2022/01/31 07:50:21;;;;;;;3.57;1.40;;;18.90;50.80;;;;;;5056728;28;20235;-20
2022/01/31 07:52:47;;;;;;;2.40;1.10;;;18.60;51.30;;;;;;5056249;28;20187;-22
2022/01/31 07:55:12;;;;;;;3.03;1.40;;;18.30;51.80;;;;;;5056539;28;20186;-22
2022/01/31 07:57:40;;;;;;;1.93;1.13;;;18.10;52.30;;;;;;5057132;28;20178;-22
2022/01/31 08:00:07;;;;;;;3.73;1.43;;;17.90;52.70;;;;;;5057240;28;20181;-22
2022/01/31 08:02:36;;;;;;;1.83;1.37;;;17.70;53.30;;;;;;5055938;28;20183;-21
2022/01/31 08:05:01;;;;;;;2.87;1.40;;;17.40;53.80;;;;;;5056550;28;20183;-19
2022/01/31 08:07:27;;;;;;;3.53;1.57;;;17.20;54.50;;;;;;5055792;28;20177;-21
2022/01/31 08:09:53;;;;;;;2.83;1.50;;;17.10;54.90;;;;;;5055395;28;20214;-20
2022/01/31 08:12:18;;;;;;;2.63;1.27;;;16.90;55.40;;;;;;5057116;28;20170;-20
2022/01/31 08:14:45;;;;;;;2.20;1.20;;;16.70;55.90;;;;;;5055832;28;20337;-20
2022/01/31 08:17:11;;;;;;;2.50;1.30;;;16.60;56.30;;;;;;5055002;28;20220;-23
2022/01/31 08:19:40;;;;;;;3.07;1.50;;;16.50;56.70;;;;;;5055328;28;20174;-22
2022/01/31 08:22:06;;;;;;;2.60;1.43;;;16.40;57.00;;;;;;5056279;28;20228;-20
2022/01/31 08:24:32;;;;;;;1.87;1.30;;;16.40;57.20;;;;;;5055166;28;20307;-22
2022/01/31 08:26:58;;;;;;;1.90;1.17;;;16.70;56.80;;;;;;5055117;28;20207;-20
2022/01/31 08:29:33;;;;;;;3.10;1.37;;;17.30;55.40;;;;;;5054833;28;20205;-22
2022/01/31 08:32:05;;;;;;;2.27;1.30;;;17.70;53.90;;;;;;5055333;28;20170;-19
2022/01/31 08:37:15;;;;;;;2.47;1.10;;;18.10;53.00;;;;;;5054889;28;20225;-19
2022/01/31 08:39:41;;;;;;;1.73;1.00;;;18.40;52.20;;;;;;5047804;28;20505;-23
2022/01/31 08:42:08;;;;;;;1.93;1.10;;;19.00;51.30;;;;;;5047625;28;20348;-19
2022/01/31 08:44:33;;;;;;;2.20;1.10;;;19.60;50.20;;;;;;5049606;28;20570;-20
2022/01/31 08:47:03;;;;;;;3.43;1.10;;;20.10;49.30;;;;;;5048359;28;20179;-19
2022/01/31 08:49:29;;;;;;;1.87;1.00;;;20.50;48.60;;;;;;5054568;28;20208;-22
2022/01/31 08:51:55;;;;;;;1.73;1.20;;;20.60;48.10;;;;;;5056074;28;20251;-23
2022/01/31 08:54:21;;;;;;;2.30;1.20;;;20.60;48.00;;;;;;5055808;28;20580;-21
2022/01/31 08:56:50;;;;;;;2.53;1.30;;;20.50;48.40;;;;;;5054974;28;20173;-19
2022/01/31 08:59:18;;;;;;;3.57;1.20;;;20.20;48.30;;;;;;5040729;28;20187;-22
2022/01/31 09:01:52;;;;;;;1.83;1.07;;;20.00;48.50;;;;;;5035112;28;20164;-22
2022/01/31 09:07:22;;;;;;;2.50;1.10;;;19.50;49.10;;;;;;4975083;28;20183;-21
2022/01/31 09:09:52;;;;;;;1.73;1.10;;;19.10;49.70;;;;;;4983235;28;20785;-21
2022/01/31 09:12:19;;;;;;;2.73;1.10;;;18.80;50.30;;;;;;5035719;28;20163;-20
2022/01/31 09:14:45;;;;;;;2.20;1.00;;;18.40;50.80;;;;;;5035964;28;20204;-22
2022/01/31 09:17:12;;;;;;;3.37;1.73;;;18.30;51.80;;;;;;5035499;28;20175;-18
2022/01/31 09:19:38;;;;;;;2.77;1.10;;;18.00;51.90;;;;;;5034043;28;20163;-20
2022/01/31 09:22:04;;;;;;;2.77;1.10;;;17.80;52.80;;;;;;5036187;28;20171;-20
2022/01/31 09:24:30;;;;;;;2.23;1.10;;;17.60;53.00;;;;;;5035550;28;20649;-20
2022/01/31 09:27:10;;;;;;;2.07;1.20;;;17.30;53.70;;;;;;5051656;28;20691;-22
2022/01/31 09:29:36;;;;;;;2.53;1.00;;;17.10;54.20;;;;;;5035139;28;20236;-24
2022/01/31 09:32:05;;;;;;;1.80;1.20;;;17.00;54.80;;;;;;5035747;28;20532;-20
2022/01/31 09:34:32;;;;;;;2.43;1.00;;;16.80;55.20;;;;;;5034631;28;20189;-23
2022/01/31 09:36:58;;;;;;;1.80;1.10;;;16.70;55.70;;;;;;5035262;28;20171;-18
2022/01/31 09:39:24;;;;;;;1.70;1.27;;;16.60;56.20;;;;;;5035551;28;20271;-22
2022/01/31 09:41:53;;;;;;;1.57;1.03;;;16.60;56.40;;;;;;5051572;28;20268;-21
2022/01/31 09:44:38;;;;;;;1.97;1.20;;;16.90;55.90;;;;;;5035181;28;20189;-19
2022/01/31 09:47:20;;;;;;;2.37;1.20;;;17.60;54.50;;;;;;5034230;28;20416;-24
2022/01/31 09:49:53;;;;;;;1.17;0.97;;;17.90;53.20;;;;;;5036576;28;20250;-22
2022/01/31 09:52:19;;;;;;;1.67;1.03;;;18.10;52.80;;;;;;5035641;28;20207;-21
2022/01/31 09:54:48;;;;;;;2.23;1.03;;;18.40;52.30;;;;;;5035075;28;20171;-21
2022/01/31 09:57:15;;;;;;;1.50;1.00;;;18.90;51.40;;;;;;5035237;28;20189;-22
2022/01/31 09:59:41;;;;;;;2.73;1.20;;;19.50;50.30;;;;;;5031770;28;20655;-22
2022/01/31 10:02:11;;;;;;;1.30;1.00;;;20.10;49.30;;;;;;5037113;28;20267;-20
2022/01/31 10:04:43;;;;;;;1.77;1.00;;;20.70;48.40;;;;;;5037634;28;20176;-20
2022/01/31 10:07:09;;;;;;;1.67;0.87;;;20.90;47.80;;;;;;5037804;28;20560;-20
2022/01/31 10:09:34;;;;;;;1.30;1.00;;;20.90;47.50;;;;;;5037563;28;20211;-23
2022/01/31 10:17:44;;;;;;;2.23;1.17;;;20.30;47.90;;;;;;5038604;28;20180;-19
2022/01/31 10:20:29;;;;;;;2.30;1.20;;;20.00;48.20;;;;;;5038699;28;20243;-21
2022/01/31 10:23:05;;;;;;;1.80;1.10;;;19.70;48.60;;;;;;5038555;28;20161;-19
2022/01/31 10:25:32;;;;;;;2.90;1.13;;;19.30;49.10;;;;;;5038963;28;20214;-25
2022/01/31 10:27:58;;;;;;;1.30;0.93;;;19.10;49.50;;;;;;5037230;28;20241;-19
2022/01/31 10:30:27;;;;;;;1.80;1.13;;;18.80;50.00;;;;;;5038404;28;20210;-22
2022/01/31 10:32:54;;;;;;;1.90;1.00;;;18.60;50.40;;;;;;5038005;28;20163;-23
2022/01/31 10:35:27;;;;;;;1.00;0.90;;;18.40;50.90;;;;;;5037817;28;20167;-21
2022/01/31 10:38:03;;;;;;;1.20;0.90;;;18.10;51.40;;;;;;5037490;28;20218;-19
2022/01/31 10:43:40;;;;;;;1.83;0.90;;;17.60;52.70;;;;;;5038364;28;20190;-21
2022/01/31 10:56:51;;;;;;;2.40;1.07;;;16.60;56.00;;;;;;5037506;28;20262;-22
2022/01/31 10:59:24;;;;;;;1.90;1.10;;;16.50;56.40;;;;;;5037544;28;20223;-21
2022/01/31 11:01:52;;;;;;;2.17;1.10;;;16.80;56.10;;;;;;5037623;28;20177;-21
2022/01/31 11:04:18;;;;;;;2.27;1.17;;;17.50;55.10;;;;;;5036202;28;20233;-21
2022/01/31 11:06:49;;;;;;;1.57;1.00;;;18.00;53.30;;;;;;5037115;28;20205;-22
2022/01/31 11:09:17;;;;;;;2.20;1.00;;;18.00;52.90;;;;;;5037620;28;20855;-21
2022/01/31 11:11:46;;;;;;;1.20;1.00;;;18.30;52.60;;;;;;5037409;28;20178;-21
2022/01/31 11:14:13;;;;;;;1.77;1.10;;;18.60;52.30;;;;;;5036777;28;20174;-23
2022/01/31 11:16:42;;;;;;;1.73;1.20;;;19.20;51.00;;;;;;5037414;28;20181;-20
2022/01/31 11:19:10;;;;;;;1.20;1.00;;;19.70;49.90;;;;;;5037251;28;20204;-22
2022/01/31 11:21:40;;;;;;;2.77;1.00;;;20.30;49.10;;;;;;5037069;28;20187;-23
2022/01/31 11:24:18;;;;;;;1.87;1.10;;;20.70;48.40;;;;;;5036946;28;20307;-23
2022/01/31 11:26:48;;;;;;;1.10;1.00;;;20.80;47.90;;;;;;5037509;28;20724;-20
2022/01/31 11:29:14;;;;;;;1.33;1.00;;;20.80;47.70;;;;;;5036851;28;20219;-22
2022/01/31 11:31:41;;;;;;;2.00;1.03;;;20.50;47.80;;;;;;5037270;28;20237;-22
2022/01/31 11:34:08;;;;;;;1.40;1.10;;;20.30;48.10;;;;;;5036884;28;20162;-21
2022/01/31 11:36:37;;;;;;;1.37;0.90;;;20.00;48.40;;;;;;5052535;28;20715;-20
2022/01/31 11:39:09;;;;;;;2.17;0.90;;;19.70;48.80;;;;;;5037444;28;20180;-21
2022/01/31 11:41:40;;;;;;;2.90;1.20;;;19.60;49.30;;;;;;5036520;28;20185;-21
2022/01/31 11:44:18;;;;;;;1.37;1.00;;;19.10;49.90;;;;;;5036765;28;20235;-19
2022/01/31 11:46:44;;;;;;;1.17;1.00;;;18.80;50.70;;;;;;5036853;28;20187;-21
2022/01/31 11:49:14;;;;;;;2.07;1.10;;;18.60;51.20;;;;;;5037047;28;20204;-20
2022/01/31 11:52:10;;;;;;;4.60;1.67;;;18.30;52.20;;;;;;5035379;28;20191;-20
2022/01/31 11:54:46;;;;;;;1.33;1.00;;;17.90;53.10;;;;;;5030948;28;20247;-22
2022/01/31 11:57:14;;;;;;;1.90;1.00;;;17.60;54.00;;;;;;5052649;28;20183;-21
2022/01/31 11:59:41;;;;;;;2.40;1.20;;;17.40;54.70;;;;;;5036316;28;20183;-19
2022/01/31 12:02:07;;;;;;;2.07;1.10;;;17.20;55.50;;;;;;5051809;28;20189;-21
2022/01/31 12:04:34;;;;;;;2.33;1.30;;;17.10;56.50;;;;;;5052090;28;20191;-23
2022/01/31 12:07:39;;;;;;;2.07;1.20;;;16.90;56.60;;;;;;5035510;28;20616;-20
2022/01/31 12:10:34;;;;;;;2.03;1.13;;;16.80;57.10;;;;;;5035006;28;20547;-21
2022/01/31 12:13:16;;;;;;;2.97;1.40;;;16.70;57.60;;;;;;5033547;28;20183;-21
2022/01/31 12:18:50;;;;;;;1.63;1.20;;;16.50;58.30;;;;;;5036139;28;20167;-23
2022/01/31 12:24:05;;;;;;;1.73;1.13;;;17.00;57.90;;;;;;5035616;28;20178;-20
2022/01/31 12:26:48;;;;;;;1.63;1.10;;;17.70;55.70;;;;;;5035813;28;20233;-19
2022/01/31 12:29:20;;;;;;;1.47;1.00;;;18.20;53.80;;;;;;5035636;28;20214;-22
2022/01/31 12:31:50;;;;;;;2.30;1.20;;;18.40;53.30;;;;;;5035527;28;20629;-21
2022/01/31 12:34:21;;;;;;;2.17;0.87;;;18.60;52.80;;;;;;5035233;28;20172;-22
2022/01/31 12:36:52;;;;;;;1.47;0.97;;;19.00;52.20;;;;;;5034529;28;20434;-21
2022/01/31 12:39:40;;;;;;;4.73;1.20;;;19.50;51.40;;;;;;5034891;28;20171;-18
2022/01/31 12:45:51;;;;;;;3.97;1.20;;;20.30;49.60;;;;;;5025878;28;20547;-19
2022/01/31 12:48:24;;;;;;;1.90;1.10;;;20.50;49.20;;;;;;5034283;28;20226;-20
2022/01/31 12:50:53;;;;;;;3.53;1.20;;;20.40;49.10;;;;;;5034309;28;20216;-21
2022/01/31 12:53:45;;;;;;;2.20;1.10;;;20.20;49.20;;;;;;5034702;28;20263;-20
2022/01/31 12:56:26;;;;;;;1.70;1.30;;;20.10;49.40;;;;;;5025976;28;20183;-19
2022/01/31 12:58:54;;;;;;;1.63;1.07;;;19.80;49.90;;;;;;5034286;28;20216;-21
2022/01/31 13:01:24;;;;;;;1.90;1.30;;;19.50;50.40;;;;;;5034805;28;20198;-21
2022/01/31 13:03:52;;;;;;;2.73;1.20;;;19.30;50.90;;;;;;5035038;28;20163;-23
2022/01/31 13:06:32;;;;;;;1.47;1.03;;;18.80;51.70;;;;;;5034701;28;20199;-22
2022/01/31 13:09:09;;;;;;;1.40;0.90;;;18.60;52.60;;;;;;5034021;28;20203;-19
2022/01/31 13:11:35;;;;;;;2.17;1.17;;;18.30;53.30;;;;;;5034170;28;20186;-19
2022/01/31 13:14:03;;;;;;;2.87;1.10;;;18.10;53.70;;;;;;5034372;28;20752;-24
2022/01/31 13:16:50;;;;;;;4.07;1.17;;;17.90;54.30;;;;;;5034800;28;20535;-22
2022/01/31 13:19:21;;;;;;;1.67;1.10;;;17.60;55.10;;;;;;5034419;28;20175;-19
2022/01/31 13:21:49;;;;;;;2.67;1.10;;;17.40;56.10;;;;;;5034225;28;20180;-21
2022/01/31 13:24:17;;;;;;;2.60;1.33;;;17.30;56.80;;;;;;5035068;28;20194;-22
2022/01/31 13:26:54;;;;;;;3.83;1.13;;;17.10;57.40;;;;;;5034783;28;20205;-18
2022/01/31 13:29:48;;;;;;;2.47;1.10;;;17.00;58.10;;;;;;5034225;28;20210;-19
2022/01/31 13:32:19;;;;;;;3.17;1.00;;;16.90;58.60;;;;;;5034889;28;20190;-20